createdAt,value
2017-09-10T00:02:10.566Z,2.43
2017-09-10T00:04:36.954Z,2.33
2017-09-10T00:07:04.198Z,2.90
2017-09-10T00:09:30.641Z,3.00
2017-09-10T00:12:12.710Z,2.10
2017-09-10T00:14:39.067Z,2.10
2017-09-10T00:17:05.505Z,2.63
2017-09-10T00:19:32.026Z,2.67
2017-09-10T00:21:59.738Z,2.90
2017-09-10T00:24:27.575Z,2.57
2017-09-10T00:26:53.934Z,2.50
2017-09-10T00:29:21.031Z,2.70
2017-09-10T00:31:48.211Z,2.60
2017-09-10T00:34:14.633Z,2.40
2017-09-10T00:36:41.027Z,2.50
2017-09-10T00:39:08.033Z,2.70
2017-09-10T00:41:35.293Z,2.60
2017-09-10T00:44:02.655Z,2.17
2017-09-10T00:46:29.060Z,2.60
2017-09-10T00:48:56.819Z,2.20
2017-09-10T00:51:24.018Z,2.67
2017-09-10T00:53:50.423Z,2.03
2017-09-10T00:56:17.821Z,2.60
2017-09-10T00:58:44.860Z,2.13
2017-09-10T01:01:11.281Z,2.27
2017-09-10T01:03:37.744Z,2.30
2017-09-10T01:06:05.126Z,1.67
2017-09-10T01:08:32.275Z,2.37
2017-09-10T01:10:58.682Z,2.33
2017-09-10T01:13:25.767Z,1.70
2017-09-10T01:15:56.165Z,1.83
2017-09-10T01:18:24.476Z,2.23
2017-09-10T01:20:56.024Z,2.03
2017-09-10T01:23:28.159Z,2.23
2017-09-10T01:25:57.159Z,2.13
2017-09-10T01:28:26.213Z,2.03
2017-09-10T01:30:54.412Z,2.13
2017-09-10T01:33:21.529Z,1.93
2017-09-10T01:35:47.875Z,2.57
2017-09-10T01:38:14.271Z,2.20
2017-09-10T01:40:40.645Z,2.30
2017-09-10T01:43:07.558Z,2.00
2017-09-10T01:45:33.928Z,2.10
2017-09-10T01:48:00.971Z,1.70
2017-09-10T01:50:27.485Z,2.00
2017-09-10T01:52:53.844Z,1.70
2017-09-10T01:55:20.896Z,1.87
2017-09-10T01:57:48.299Z,2.30
2017-09-10T02:00:14.702Z,2.40
2017-09-10T02:02:42.158Z,1.97
2017-09-10T02:05:08.561Z,2.10
2017-09-10T02:07:35.863Z,2.70
2017-09-10T02:10:02.299Z,2.20
2017-09-10T02:12:28.711Z,2.23
2017-09-10T02:14:55.102Z,2.30
2017-09-10T02:17:22.272Z,2.10
2017-09-10T02:19:50.214Z,1.80
2017-09-10T02:22:17.470Z,2.90
2017-09-10T02:24:44.510Z,2.03
2017-09-10T02:27:11.609Z,2.10
2017-09-10T02:29:39.584Z,2.20
2017-09-10T02:32:06.713Z,1.93
2017-09-10T02:34:33.847Z,2.37
2017-09-10T02:37:00.267Z,2.07
2017-09-10T02:39:26.673Z,2.10
2017-09-10T02:41:54.844Z,2.10
2017-09-10T02:44:22.642Z,2.30
2017-09-10T02:46:49.041Z,1.80
2017-09-10T02:49:15.445Z,1.60
2017-09-10T02:51:41.810Z,1.90
2017-09-10T02:54:08.990Z,1.53
2017-09-10T02:56:36.163Z,1.70
2017-09-10T02:59:03.240Z,1.50
2017-09-10T03:01:29.610Z,1.73
2017-09-10T03:03:56.808Z,1.60
2017-09-10T03:06:24.876Z,1.60
2017-09-10T03:08:52.021Z,1.80
2017-09-10T03:11:20.305Z,1.77
2017-09-10T03:13:48.125Z,1.43
2017-09-10T03:16:15.532Z,1.70
2017-09-10T03:18:42.715Z,1.70
2017-09-10T03:21:10.008Z,1.70
2017-09-10T03:23:36.414Z,1.50
2017-09-10T03:26:02.790Z,1.90
2017-09-10T03:28:30.181Z,1.50
2017-09-10T03:30:58.121Z,1.80
2017-09-10T03:33:24.491Z,2.20
2017-09-10T03:35:51.608Z,1.70
2017-09-10T03:38:18.037Z,2.10
2017-09-10T03:40:46.337Z,1.70
2017-09-10T03:43:13.353Z,1.60
2017-09-10T03:45:39.760Z,2.00
2017-09-10T03:48:06.883Z,1.50
2017-09-10T03:50:33.354Z,1.80
2017-09-10T03:53:00.467Z,1.30
2017-09-10T03:55:27.936Z,1.80
2017-09-10T03:57:55.196Z,1.43
2017-09-10T04:00:21.594Z,1.30
2017-09-10T04:02:48.930Z,1.40
2017-09-10T04:05:15.365Z,1.50
2017-09-10T04:07:43.204Z,1.73
2017-09-10T04:10:09.575Z,1.40
2017-09-10T04:12:37.502Z,1.60
2017-09-10T04:15:04.794Z,1.20
2017-09-10T04:17:31.911Z,1.97
2017-09-10T04:19:58.309Z,1.53
2017-09-10T04:22:25.314Z,1.60
2017-09-10T04:24:51.707Z,2.00
2017-09-10T04:27:18.721Z,1.70
2017-09-10T04:29:46.779Z,1.93
2017-09-10T04:32:13.187Z,1.80
2017-09-10T04:34:40.361Z,2.07
2017-09-10T04:37:06.741Z,1.70
2017-09-10T04:39:33.913Z,1.90
2017-09-10T04:42:01.202Z,1.90
2017-09-10T04:44:27.622Z,1.90
2017-09-10T04:46:54.067Z,1.90
2017-09-10T04:49:21.283Z,1.83
2017-09-10T04:51:48.400Z,2.17
2017-09-10T04:54:15.472Z,1.90
2017-09-10T04:56:41.862Z,2.10
2017-09-10T04:59:09.194Z,1.70
2017-09-10T05:01:36.614Z,1.93
2017-09-10T05:04:03.053Z,2.17
2017-09-10T05:06:31.630Z,1.67
2017-09-10T05:08:58.657Z,1.70
2017-09-10T05:11:25.055Z,2.20
2017-09-10T05:13:52.232Z,2.00
2017-09-10T05:16:19.922Z,1.50
2017-09-10T05:18:46.341Z,1.40
2017-09-10T05:21:14.459Z,1.83
2017-09-10T05:23:42.197Z,1.67
2017-09-10T05:26:08.612Z,1.70
2017-09-10T05:28:36.729Z,1.53
2017-09-10T05:31:04.968Z,1.20
2017-09-10T05:33:32.168Z,1.10
2017-09-10T05:35:58.604Z,0.90
2017-09-10T05:38:25.718Z,1.00
2017-09-10T05:40:54.258Z,1.10
2017-09-10T05:43:21.310Z,1.07
2017-09-10T05:45:48.268Z,0.87
2017-09-10T05:48:14.690Z,0.80
2017-09-10T05:50:41.107Z,0.80
2017-09-10T05:53:07.543Z,0.90
2017-09-10T05:55:34.051Z,0.80
2017-09-10T05:58:02.733Z,0.90
2017-09-10T06:00:29.151Z,0.80
2017-09-10T06:02:55.577Z,0.70
2017-09-10T06:05:23.081Z,0.80
2017-09-10T06:07:50.868Z,0.70
2017-09-10T06:10:17.995Z,0.77
2017-09-10T06:12:44.409Z,0.67
2017-09-10T06:15:12.522Z,0.70
2017-09-10T06:17:40.514Z,0.70
2017-09-10T06:20:07.621Z,0.60
2017-09-10T06:22:34.617Z,0.60
2017-09-10T06:25:01.680Z,0.60
2017-09-10T06:27:29.429Z,0.70
2017-09-10T06:29:57.360Z,0.70
2017-09-10T06:32:24.557Z,0.70
2017-09-10T06:34:51.749Z,0.80
2017-09-10T06:37:18.968Z,0.70
2017-09-10T06:39:46.075Z,0.80
2017-09-10T06:42:13.119Z,0.60
2017-09-10T06:44:40.191Z,0.70
2017-09-10T06:47:06.562Z,0.70
2017-09-10T06:49:34.536Z,0.70
2017-09-10T06:52:01.687Z,0.80
2017-09-10T06:54:30.039Z,0.70
2017-09-10T06:56:56.453Z,0.70
2017-09-10T06:59:22.910Z,0.70
2017-09-10T07:01:49.322Z,0.70
2017-09-10T07:04:16.619Z,0.60
2017-09-10T07:06:43.824Z,0.70
2017-09-10T07:09:10.921Z,0.60
2017-09-10T07:11:37.287Z,0.70
2017-09-10T07:14:03.689Z,0.70
2017-09-10T07:16:31.002Z,0.60
2017-09-10T07:18:58.102Z,0.80
2017-09-10T07:21:26.124Z,0.70
2017-09-10T07:23:53.815Z,0.67
2017-09-10T07:26:20.167Z,0.70
2017-09-10T07:28:47.356Z,0.80
2017-09-10T07:31:14.813Z,0.67
2017-09-10T07:33:41.964Z,0.90
2017-09-10T07:36:09.157Z,0.80
2017-09-10T07:38:36.313Z,0.80
2017-09-10T07:41:04.139Z,0.97
2017-09-10T07:43:31.999Z,0.80
2017-09-10T07:45:58.379Z,6.07
2017-09-10T07:48:24.814Z,4.10
2017-09-10T07:50:51.230Z,20.23
2017-09-10T07:53:18.433Z,4.40
2017-09-10T07:55:45.638Z,1.20
2017-09-10T07:58:12.846Z,1.00
2017-09-10T08:00:39.948Z,0.90
2017-09-10T08:03:07.101Z,1.10
2017-09-10T08:05:35.394Z,0.90
2017-09-10T08:08:01.767Z,0.80
2017-09-10T08:10:28.254Z,0.80
2017-09-10T08:12:55.315Z,1.13
2017-09-10T08:15:22.724Z,1.10
2017-09-10T08:17:50.018Z,1.00
2017-09-10T08:20:17.358Z,0.80
2017-09-10T08:22:44.694Z,0.60
2017-09-10T08:25:11.798Z,0.67
2017-09-10T08:27:39.914Z,0.70
2017-09-10T08:30:07.868Z,0.70
2017-09-10T08:32:34.219Z,0.70
2017-09-10T08:35:00.559Z,0.80
2017-09-10T08:37:27.058Z,1.00
2017-09-10T08:39:53.508Z,0.90
2017-09-10T08:42:20.773Z,0.90
2017-09-10T08:44:47.148Z,1.07
2017-09-10T08:47:14.297Z,0.90
2017-09-10T08:49:43.004Z,1.00
2017-09-10T08:52:10.163Z,1.10
2017-09-10T08:54:36.554Z,1.40
2017-09-10T08:57:03.032Z,1.30
2017-09-10T08:59:30.930Z,1.40
2017-09-10T09:01:57.336Z,1.60
2017-09-10T09:04:25.084Z,1.43
2017-09-10T09:06:52.403Z,1.70
2017-09-10T09:09:19.538Z,1.20
2017-09-10T09:11:47.252Z,2.20
2017-09-10T09:14:14.430Z,1.50
2017-09-10T09:16:41.963Z,1.60
2017-09-10T09:19:09.018Z,1.40
2017-09-10T09:21:36.013Z,1.50
2017-09-10T09:24:03.847Z,1.27
2017-09-10T09:26:30.249Z,1.50
2017-09-10T09:28:57.186Z,1.77
2017-09-10T09:31:24.274Z,1.40
2017-09-10T09:33:50.639Z,1.50
2017-09-10T09:36:17.008Z,1.20
2017-09-10T09:38:45.270Z,1.80
2017-09-10T09:41:14.268Z,1.40
2017-09-10T09:43:41.391Z,1.20
2017-09-10T09:46:07.733Z,1.83
2017-09-10T09:48:35.766Z,1.63
2017-09-10T09:51:03.200Z,2.10
2017-09-10T09:53:31.169Z,2.57
2017-09-10T09:55:58.374Z,1.70
2017-09-10T09:58:25.434Z,1.70
2017-09-10T10:00:52.835Z,1.83
2017-09-10T10:03:19.966Z,1.90
2017-09-10T10:05:47.412Z,1.70
2017-09-10T10:08:14.568Z,1.80
2017-09-10T10:10:41.832Z,1.60
2017-09-10T10:13:08.204Z,1.20
2017-09-10T10:15:36.241Z,1.60
2017-09-10T10:18:02.665Z,2.20
2017-09-10T10:20:29.664Z,1.50
2017-09-10T10:22:56.791Z,1.50
2017-09-10T10:25:23.129Z,1.30
2017-09-10T10:27:49.709Z,2.23
2017-09-10T10:30:17.800Z,1.43
2017-09-10T10:32:44.264Z,1.60
2017-09-10T10:35:10.677Z,1.23
2017-09-10T10:37:37.837Z,1.40
2017-09-10T10:40:04.884Z,1.40
2017-09-10T10:42:31.866Z,1.70
2017-09-10T10:44:59.235Z,1.40
2017-09-10T10:47:25.761Z,2.73
2017-09-10T10:49:52.694Z,1.60
2017-09-10T10:52:19.152Z,1.53
2017-09-10T10:54:46.377Z,1.33
2017-09-10T10:57:12.739Z,1.13
2017-09-10T10:59:39.180Z,0.90
2017-09-10T11:02:06.358Z,1.20
2017-09-10T11:04:32.727Z,0.97
2017-09-10T11:07:00.828Z,1.10
2017-09-10T11:09:27.364Z,1.60
2017-09-10T11:11:53.882Z,2.10
2017-09-10T11:14:21.195Z,1.40
2017-09-10T11:16:48.529Z,1.50
2017-09-10T11:19:15.435Z,1.33
2017-09-10T11:21:42.678Z,1.00
2017-09-10T11:24:09.811Z,1.30
2017-09-10T11:26:36.385Z,1.20
2017-09-10T11:29:04.340Z,1.00
2017-09-10T11:31:31.394Z,1.20
2017-09-10T11:33:57.795Z,0.90
2017-09-10T11:36:24.155Z,1.20
2017-09-10T11:38:51.551Z,1.20
2017-09-10T11:41:18.544Z,1.00
2017-09-10T11:43:45.719Z,1.10
2017-09-10T11:46:12.131Z,1.20
2017-09-10T11:48:39.338Z,1.10
2017-09-10T11:51:06.827Z,1.10
2017-09-10T11:53:34.566Z,1.10
2017-09-10T11:56:01.569Z,2.03
2017-09-10T11:58:28.674Z,3.77
2017-09-10T12:00:55.046Z,8.70
2017-09-10T12:03:23.272Z,4.33
2017-09-10T12:05:50.952Z,4.37
2017-09-10T12:08:17.354Z,3.13
2017-09-10T12:10:43.788Z,1.70
2017-09-10T12:13:10.250Z,1.23
2017-09-10T12:15:36.606Z,1.60
2017-09-10T12:18:03.074Z,1.43
2017-09-10T12:20:30.102Z,1.10
2017-09-10T12:22:56.458Z,1.33
2017-09-10T12:25:24.015Z,1.03
2017-09-10T12:27:50.379Z,1.10
2017-09-10T12:30:18.394Z,0.90
2017-09-10T12:32:45.667Z,1.30
2017-09-10T12:35:12.090Z,2.03
2017-09-10T12:37:38.485Z,0.90
2017-09-10T12:40:06.375Z,0.80
2017-09-10T12:42:33.674Z,0.80
2017-09-10T12:45:00.658Z,0.93
2017-09-10T12:47:28.687Z,0.90
2017-09-10T12:49:56.608Z,0.80
2017-09-10T12:52:24.534Z,1.80
2017-09-10T12:54:51.044Z,1.00
2017-09-10T12:57:17.458Z,0.90
2017-09-10T12:59:47.172Z,0.90
2017-09-10T13:02:14.854Z,0.80
2017-09-10T13:04:42.148Z,0.80
2017-09-10T13:07:09.120Z,1.10
2017-09-10T13:09:35.512Z,0.80
2017-09-10T13:12:01.904Z,0.90
2017-09-10T13:14:28.472Z,0.90
2017-09-10T13:16:55.569Z,0.70
2017-09-10T13:19:22.105Z,0.90
2017-09-10T13:21:49.182Z,0.80
2017-09-10T13:24:16.546Z,0.80
2017-09-10T13:26:42.897Z,0.87
2017-09-10T13:29:09.284Z,1.20
2017-09-10T13:31:36.512Z,1.10
2017-09-10T13:34:03.808Z,1.10
2017-09-10T13:36:31.922Z,1.40
2017-09-10T13:38:58.926Z,1.50
2017-09-10T13:41:26.527Z,1.50
2017-09-10T13:43:53.534Z,2.00
2017-09-10T13:46:20.645Z,1.50
2017-09-10T13:48:47.779Z,2.10
2017-09-10T13:51:14.147Z,1.80
2017-09-10T13:53:41.328Z,1.67
2017-09-10T13:56:10.535Z,2.10
2017-09-10T13:58:39.301Z,2.10
2017-09-10T14:01:07.262Z,1.67
2017-09-10T14:03:34.534Z,1.70
2017-09-10T14:06:02.467Z,1.50
2017-09-10T14:08:28.859Z,1.70
2017-09-10T14:10:55.962Z,1.50
2017-09-10T14:13:23.054Z,1.70
2017-09-10T14:15:50.257Z,1.73
2017-09-10T14:18:16.799Z,1.57
2017-09-10T14:20:43.955Z,1.70
2017-09-10T14:23:10.310Z,1.40
2017-09-10T14:25:37.353Z,1.90
2017-09-10T14:28:03.708Z,1.73
2017-09-10T14:30:31.051Z,1.83
2017-09-10T14:32:57.473Z,2.20
2017-09-10T14:35:24.761Z,2.00
2017-09-10T14:37:51.336Z,2.10
2017-09-10T14:40:19.466Z,2.13
2017-09-10T14:42:47.125Z,1.90
2017-09-10T14:45:15.320Z,2.50
2017-09-10T14:47:41.839Z,2.10
2017-09-10T14:50:08.267Z,1.90
2017-09-10T14:52:34.674Z,2.20
2017-09-10T14:55:01.786Z,1.97
2017-09-10T14:57:28.722Z,2.90
2017-09-10T14:59:55.090Z,2.40
2017-09-10T15:02:21.510Z,2.37
2017-09-10T15:04:47.939Z,2.10
2017-09-10T15:07:15.607Z,2.40
2017-09-10T15:09:42.771Z,2.27
2017-09-10T15:12:09.172Z,2.30
2017-09-10T15:14:36.282Z,2.37
2017-09-10T15:17:03.971Z,2.40
2017-09-10T15:19:31.083Z,2.00
2017-09-10T15:21:58.143Z,2.60
2017-09-10T15:24:25.804Z,2.37
2017-09-10T15:26:52.959Z,2.00
2017-09-10T15:29:19.355Z,2.60
2017-09-10T15:31:47.479Z,2.80
2017-09-10T15:34:14.433Z,3.07
2017-09-10T15:36:42.902Z,3.00
2017-09-10T15:39:10.479Z,2.67
2017-09-10T15:41:37.511Z,2.53
2017-09-10T15:44:04.745Z,2.90
2017-09-10T15:46:32.081Z,3.00
2017-09-10T15:49:00.387Z,2.70
2017-09-10T15:51:27.315Z,2.67
2017-09-10T15:53:55.243Z,3.17
2017-09-10T15:56:21.602Z,2.43
2017-09-10T15:58:48.635Z,2.20
2017-09-10T16:01:15.079Z,2.40
2017-09-10T16:03:42.212Z,1.90
2017-09-10T16:06:09.527Z,3.40
2017-09-10T16:08:36.693Z,2.90
2017-09-10T16:11:03.837Z,2.70
2017-09-10T16:13:30.962Z,2.93
2017-09-10T16:17:39.718Z,2.40
2017-09-10T16:20:06.988Z,2.20
2017-09-10T16:22:33.902Z,3.00
2017-09-10T16:25:01.184Z,2.73
2017-09-10T16:27:29.695Z,2.20
2017-09-10T16:29:57.226Z,3.33
2017-09-10T16:32:24.785Z,2.27
2017-09-10T16:34:52.045Z,1.77
2017-09-10T16:37:19.729Z,1.90
2017-09-10T16:39:46.912Z,1.97
2017-09-10T16:42:14.738Z,2.93
2017-09-10T16:44:43.742Z,3.00
2017-09-10T16:47:10.850Z,3.57
2017-09-10T16:49:38.845Z,3.00
2017-09-10T16:52:05.969Z,3.13
2017-09-10T16:54:32.987Z,2.10
2017-09-10T16:57:00.438Z,2.40
2017-09-10T16:59:27.370Z,2.70
2017-09-10T17:01:54.613Z,2.30
2017-09-10T17:04:21.003Z,2.27
2017-09-10T17:06:47.961Z,2.90
2017-09-10T17:09:15.168Z,2.40
2017-09-10T17:11:41.683Z,2.37
2017-09-10T17:14:09.695Z,2.07
2017-09-10T17:16:36.829Z,1.90
2017-09-10T17:19:04.265Z,2.20
2017-09-10T17:21:31.350Z,2.10
2017-09-10T17:23:58.339Z,1.90
2017-09-10T17:26:24.745Z,2.00
2017-09-10T17:28:51.911Z,1.97
2017-09-10T17:31:19.242Z,3.53
2017-09-10T17:33:46.342Z,2.80
2017-09-10T17:36:13.757Z,4.33
2017-09-10T17:38:40.646Z,3.30
2017-09-10T17:41:08.886Z,3.90
2017-09-10T17:43:35.365Z,4.90
2017-09-10T17:46:02.449Z,5.63
2017-09-10T17:48:28.933Z,3.30
2017-09-10T17:50:55.978Z,4.20
2017-09-10T17:53:22.422Z,3.70
2017-09-10T17:55:50.937Z,2.50
2017-09-10T17:58:18.635Z,3.63
2017-09-10T18:00:45.883Z,4.20
2017-09-10T18:03:13.661Z,3.60
2017-09-10T18:05:42.385Z,3.47
2017-09-10T18:08:08.837Z,3.57
2017-09-10T18:10:35.248Z,3.17
2017-09-10T18:13:02.430Z,3.73
2017-09-10T18:15:29.927Z,3.13
2017-09-10T18:17:56.356Z,2.63
2017-09-10T18:20:23.828Z,4.20
2017-09-10T18:22:50.317Z,3.53
2017-09-10T18:25:17.369Z,4.33
2017-09-10T18:27:45.152Z,4.80
2017-09-10T18:30:11.758Z,4.27
2017-09-10T18:32:39.977Z,4.07
2017-09-10T18:35:07.209Z,3.93
2017-09-10T18:37:34.466Z,5.50
2017-09-10T18:40:00.936Z,4.27
2017-09-10T18:42:28.296Z,4.40
2017-09-10T18:44:55.587Z,3.50
2017-09-10T18:47:23.215Z,3.17
2017-09-10T18:49:52.289Z,2.70
2017-09-10T18:52:19.474Z,3.63
2017-09-10T18:54:46.887Z,3.10
2017-09-10T18:57:13.299Z,2.00
2017-09-10T18:59:40.974Z,2.03
2017-09-10T19:02:08.913Z,2.10
2017-09-10T19:04:36.681Z,2.57
2017-09-10T19:07:03.675Z,2.70
2017-09-10T19:09:31.415Z,1.97
2017-09-10T19:11:57.834Z,2.80
2017-09-10T19:14:25.665Z,1.90
2017-09-10T19:16:52.765Z,2.30
2017-09-10T19:19:19.184Z,1.80
2017-09-10T19:21:46.360Z,2.07
2017-09-10T19:24:13.429Z,1.90
2017-09-10T19:26:40.523Z,1.80
2017-09-10T19:29:07.727Z,2.00
2017-09-10T19:31:34.906Z,2.10
2017-09-10T19:34:02.770Z,2.77
2017-09-10T19:36:29.823Z,2.27
2017-09-10T19:38:57.080Z,1.90
2017-09-10T19:41:24.194Z,1.73
2017-09-10T19:43:51.319Z,1.80
2017-09-10T19:46:19.381Z,2.47
2017-09-10T19:48:45.889Z,4.33
2017-09-10T19:51:12.325Z,3.90
2017-09-10T19:53:39.346Z,4.40
2017-09-10T19:56:06.563Z,3.60
2017-09-10T19:58:32.973Z,3.57
2017-09-10T20:00:59.441Z,2.93
2017-09-10T20:03:25.921Z,3.53
2017-09-10T20:05:53.418Z,3.13
2017-09-10T20:08:19.791Z,4.67
2017-09-10T20:10:46.968Z,2.70
2017-09-10T20:13:14.082Z,3.27
2017-09-10T20:15:41.245Z,2.57
2017-09-10T20:18:08.637Z,2.93
2017-09-10T20:20:36.505Z,3.30
2017-09-10T20:23:04.253Z,3.10
2017-09-10T20:25:30.655Z,3.53
2017-09-10T20:27:57.081Z,2.40
2017-09-10T20:30:23.562Z,2.50
2017-09-10T20:32:50.590Z,2.30
2017-09-10T20:35:17.984Z,2.30
2017-09-10T20:37:44.343Z,2.10
2017-09-10T20:40:11.500Z,2.20
2017-09-10T20:42:40.023Z,1.80
2017-09-10T20:45:07.524Z,1.60
2017-09-10T20:47:34.969Z,1.90
2017-09-10T20:50:02.117Z,1.80
2017-09-10T20:52:29.142Z,2.30
2017-09-10T20:54:56.123Z,2.20
2017-09-10T20:57:22.517Z,2.40
2017-09-10T20:59:49.478Z,2.10
2017-09-10T21:02:15.957Z,2.27
2017-09-10T21:04:42.869Z,1.60
2017-09-10T21:07:10.335Z,2.47
2017-09-10T21:09:37.607Z,2.40
2017-09-10T21:12:04.024Z,2.30
2017-09-10T21:14:31.807Z,2.30
2017-09-10T21:16:59.186Z,2.03
2017-09-10T21:19:26.382Z,2.10
2017-09-10T21:21:53.492Z,2.23
2017-09-10T21:24:21.476Z,1.90
2017-09-10T21:26:47.998Z,2.53
2017-09-10T21:29:16.032Z,4.33
2017-09-10T21:31:44.267Z,3.80
2017-09-10T21:34:10.775Z,3.10
2017-09-10T21:36:37.843Z,4.40
2017-09-10T21:39:05.218Z,3.00
2017-09-10T21:41:32.279Z,3.10
2017-09-10T21:43:59.415Z,2.50
2017-09-10T21:46:27.454Z,3.10
2017-09-10T21:48:54.615Z,3.67
2017-09-10T21:51:21.903Z,2.57
2017-09-10T21:53:48.284Z,3.10
2017-09-10T21:56:16.225Z,3.00
2017-09-10T21:58:42.652Z,2.80
2017-09-10T22:01:09.682Z,2.77
2017-09-10T22:03:36.158Z,3.80
2017-09-10T22:06:03.602Z,4.63
2017-09-10T22:08:30.048Z,2.47
2017-09-10T22:10:57.402Z,3.10
2017-09-10T22:13:24.430Z,3.03
2017-09-10T22:15:51.428Z,2.37
2017-09-10T22:18:18.324Z,2.70
2017-09-10T22:20:45.906Z,4.50
2017-09-10T22:23:13.077Z,3.00
2017-09-10T22:25:41.005Z,3.37
2017-09-10T22:28:08.837Z,3.17
2017-09-10T22:30:35.888Z,2.63
2017-09-10T22:33:02.820Z,3.90
2017-09-10T22:35:30.180Z,2.67
2017-09-10T22:37:56.542Z,3.10
2017-09-10T22:40:22.938Z,3.20
2017-09-10T22:42:50.574Z,3.00
2017-09-10T22:45:18.366Z,2.67
2017-09-10T22:47:44.766Z,3.07
2017-09-10T22:50:11.307Z,3.60
2017-09-10T22:52:37.845Z,4.27
2017-09-10T22:55:04.917Z,4.30
2017-09-10T22:57:32.756Z,3.23
2017-09-10T22:59:59.940Z,3.20
2017-09-10T23:02:28.082Z,3.27
2017-09-10T23:04:55.243Z,4.30
2017-09-10T23:07:22.696Z,2.97
2017-09-10T23:09:49.642Z,2.63
2017-09-10T23:12:16.174Z,2.53
2017-09-10T23:14:43.178Z,2.20
2017-09-10T23:17:10.325Z,3.70
2017-09-10T23:19:37.435Z,3.60
2017-09-10T23:22:03.870Z,3.50
2017-09-10T23:24:31.139Z,4.00
2017-09-10T23:26:58.055Z,4.43
2017-09-10T23:29:25.152Z,4.00
2017-09-10T23:31:53.028Z,4.70
2017-09-10T23:34:19.418Z,3.87
2017-09-10T23:36:46.649Z,6.10
2017-09-10T23:39:15.426Z,4.17
2017-09-10T23:41:42.551Z,4.30
2017-09-10T23:44:08.902Z,3.40
2017-09-10T23:46:35.261Z,4.60
2017-09-10T23:49:01.741Z,7.30
2017-09-10T23:51:29.346Z,3.93
2017-09-10T23:53:56.378Z,4.37
2017-09-10T23:56:22.815Z,3.77
2017-09-10T23:58:49.221Z,4.30
